Etusivu
METAR-TAF:

METAR-TAF

Lentoasemat :

Auburn, Indiana, Yhdysvallat

Leveyspiiri: 41-18-26N, Pituuspiiri: 085-03-52W, korkeus merenpinnasta: 268 m

Tämänhetkinen sää

Tämä raportti tehtiin 17 minuuttia sitten, kello 10.35 UTC
Tuuli 14 kn pohjoisesta puuskistuen 20 kn:hen
Lämpötila 5°C
Kosteus 81%
Ilmanpaine 1003 hPa
Näkyvyys: 16.1 km
Pilvistä 1800 ft:n korkeudessa

METAR: KGWB 201035Z AUTO 01014G20KT 10SM OVC018 05/02 A2961 RMK AO2

Aika: 06:52 (10:52 UTC)


TAF: puuttuu

Säähavainnot ja -ennusteet yli 4000 lentoasemalta (METAR- ja TAF-raportit).

Käytössä olevat sääasemat on merkitty karttaan keltaisilla ja punaisilla pisteillä.

Aseta hiiri pisteen päälle nähdäksesi sääaseman nimen.

Klikkaa sitten nähdäksesi säähavainnot ja -ennusteet.

Kartan vaihtaminen: klikkaa mustalla rastilla varustettuja vihreitä pisteitä, niin voit zoomata sisään; viivalla varustettua vihreää pistettä, niin voit zoomata ulos tai vihreitä nuolia, niin pääset viereisille kartoille.


METAR-TAF: